createdAt,value
2019-02-19T00:01:02.293Z,69.32
2019-02-19T00:03:34.253Z,69.53
2019-02-19T00:06:06.242Z,69.56
2019-02-19T00:08:38.443Z,69.59
2019-02-19T00:11:10.450Z,69.50
2019-02-19T00:13:42.432Z,69.71
2019-02-19T00:16:14.418Z,69.74
2019-02-19T00:18:46.417Z,69.86
2019-02-19T00:21:18.517Z,69.90
2019-02-19T00:23:50.488Z,70.43
2019-02-19T00:26:22.641Z,70.33
2019-02-19T00:28:54.637Z,70.41
2019-02-19T00:31:26.846Z,70.41
2019-02-19T00:34:00.600Z,70.45
2019-02-19T00:36:32.613Z,70.89
2019-02-19T00:39:04.917Z,70.87
2019-02-19T00:41:36.916Z,70.44
2019-02-19T00:44:08.884Z,70.42
2019-02-19T00:46:40.936Z,70.33
2019-02-19T00:49:12.889Z,70.48
2019-02-19T00:51:44.902Z,70.57
2019-02-19T00:54:16.880Z,70.63
2019-02-19T00:56:48.881Z,70.72
2019-02-19T00:59:20.875Z,70.64
2019-02-19T01:01:52.866Z,70.62
2019-02-19T01:04:24.835Z,70.34
2019-02-19T01:06:56.832Z,70.03
2019-02-19T01:09:28.822Z,70.22
2019-02-19T01:12:00.883Z,70.77
2019-02-19T01:14:32.885Z,70.73
2019-02-19T01:17:04.815Z,71.39
2019-02-19T01:19:36.797Z,71.52
2019-02-19T01:22:08.856Z,71.60
2019-02-19T01:24:40.840Z,71.35
2019-02-19T01:27:12.831Z,71.37
2019-02-19T01:29:44.852Z,71.18
2019-02-19T01:32:16.800Z,71.02
2019-02-19T01:34:48.807Z,70.66
2019-02-19T01:37:40.241Z,70.60
2019-02-19T01:40:12.255Z,70.66
2019-02-19T01:42:44.264Z,70.59
2019-02-19T01:45:16.216Z,70.78
2019-02-19T01:47:48.169Z,70.72
2019-02-19T01:50:20.194Z,71.13
2019-02-19T01:52:52.181Z,71.74
2019-02-19T01:55:25.133Z,71.70
2019-02-19T01:57:57.099Z,71.50
2019-02-19T02:00:29.115Z,71.50
2019-02-19T02:03:02.907Z,71.49
2019-02-19T02:05:34.939Z,71.40
2019-02-19T02:08:06.928Z,71.45
2019-02-19T02:10:38.922Z,71.59
2019-02-19T02:13:10.896Z,71.87
2019-02-19T02:15:43.031Z,71.96
2019-02-19T02:18:14.960Z,71.89
2019-02-19T02:20:47.056Z,71.35
2019-02-19T02:23:19.023Z,71.57
2019-02-19T02:25:51.027Z,71.57
2019-02-19T02:28:22.993Z,71.63
2019-02-19T02:30:54.980Z,71.82
2019-02-19T02:33:26.944Z,72.22
2019-02-19T02:35:58.939Z,72.56
2019-02-19T02:38:30.913Z,72.69
2019-02-19T02:41:02.914Z,72.72
2019-02-19T02:43:34.883Z,72.07
2019-02-19T02:46:06.897Z,72.10
2019-02-19T02:48:38.847Z,72.35
2019-02-19T02:51:10.840Z,72.30
2019-02-19T02:53:42.934Z,72.14
2019-02-19T02:56:16.047Z,72.53
2019-02-19T02:58:48.008Z,73.17
2019-02-19T03:01:20.011Z,73.25
2019-02-19T03:03:51.980Z,73.69
2019-02-19T03:06:29.889Z,73.93
2019-02-19T03:09:01.869Z,73.70
2019-02-19T03:11:33.859Z,73.21
2019-02-19T03:14:07.541Z,72.72
2019-02-19T03:16:39.527Z,72.78
2019-02-19T03:19:11.574Z,72.72
2019-02-19T03:21:43.542Z,72.78
2019-02-19T03:24:15.502Z,72.58
2019-02-19T03:26:47.497Z,72.76
2019-02-19T03:29:19.462Z,72.78
2019-02-19T03:31:51.455Z,72.83
2019-02-19T03:34:23.440Z,72.96
2019-02-19T03:36:55.434Z,72.65
2019-02-19T03:39:27.454Z,72.85
2019-02-19T03:41:59.453Z,72.79
2019-02-19T03:44:31.444Z,73.15
2019-02-19T03:47:03.430Z,73.33
2019-02-19T03:49:35.417Z,73.64
2019-02-19T03:52:07.485Z,73.80
2019-02-19T03:54:39.456Z,73.68
2019-02-19T03:57:11.453Z,74.04
2019-02-19T03:59:43.517Z,74.30
2019-02-19T04:02:15.501Z,74.19
2019-02-19T04:04:47.491Z,74.84
2019-02-19T04:07:19.449Z,75.41
2019-02-19T04:09:51.464Z,75.79
2019-02-19T04:12:23.466Z,75.92
2019-02-19T04:14:55.569Z,76.31
2019-02-19T04:17:27.543Z,76.67
2019-02-19T04:19:59.611Z,76.80
2019-02-19T04:22:33.396Z,76.99
2019-02-19T04:25:05.363Z,77.22
2019-02-19T04:27:37.325Z,76.60
2019-02-19T04:30:09.332Z,76.28
2019-02-19T04:32:41.289Z,74.94
2019-02-19T04:35:13.289Z,75.32
2019-02-19T04:37:46.387Z,75.91
2019-02-19T04:40:19.722Z,76.23
2019-02-19T04:42:51.699Z,76.24
2019-02-19T04:45:23.714Z,76.22
2019-02-19T04:47:55.708Z,76.09
2019-02-19T04:50:27.686Z,75.91
2019-02-19T04:52:59.643Z,75.83
2019-02-19T04:55:31.664Z,75.51
2019-02-19T04:58:03.630Z,74.91
2019-02-19T05:00:35.643Z,75.11
2019-02-19T05:03:07.616Z,75.84
2019-02-19T05:05:39.602Z,76.42
2019-02-19T05:08:11.575Z,76.89
2019-02-19T05:10:43.641Z,77.24
2019-02-19T05:13:15.634Z,77.17
2019-02-19T05:15:47.635Z,76.83
2019-02-19T05:18:19.610Z,76.66
2019-02-19T05:20:51.607Z,76.77
2019-02-19T05:23:23.601Z,76.24
2019-02-19T05:25:55.629Z,76.96
2019-02-19T05:28:27.594Z,76.82
2019-02-19T05:30:59.577Z,77.03
2019-02-19T05:33:31.552Z,77.64
2019-02-19T05:36:03.589Z,77.35
2019-02-19T05:38:35.528Z,76.00
2019-02-19T05:41:07.758Z,76.33
2019-02-19T05:43:39.775Z,76.84
2019-02-19T05:46:11.797Z,77.06
2019-02-19T05:48:43.761Z,76.91
2019-02-19T05:51:15.765Z,77.07
2019-02-19T05:53:47.742Z,77.61
2019-02-19T05:56:19.767Z,77.49
2019-02-19T05:58:51.767Z,77.43
2019-02-19T06:01:23.779Z,77.38
2019-02-19T06:03:55.839Z,76.78
2019-02-19T06:06:27.871Z,77.02
2019-02-19T06:08:59.863Z,77.18
2019-02-19T06:11:32.059Z,77.16
2019-02-19T06:14:04.072Z,76.93
2019-02-19T06:16:36.106Z,77.01
2019-02-19T06:19:08.168Z,77.07
2019-02-19T06:21:40.174Z,76.78
2019-02-19T06:24:12.159Z,76.90
2019-02-19T06:26:44.141Z,75.67
2019-02-19T06:29:16.167Z,76.16
2019-02-19T06:31:48.116Z,76.17
2019-02-19T06:34:20.113Z,74.70
2019-02-19T06:36:52.100Z,75.19
2019-02-19T06:39:24.107Z,75.85
2019-02-19T06:41:56.065Z,74.97
2019-02-19T06:44:28.710Z,75.25
2019-02-19T06:47:06.686Z,75.29
2019-02-19T06:49:34.615Z,75.75
2019-02-19T06:52:06.789Z,75.77
2019-02-19T06:54:38.795Z,74.40
2019-02-19T06:57:10.766Z,74.76
2019-02-19T06:59:42.778Z,74.84
2019-02-19T07:02:23.744Z,74.87
2019-02-19T07:04:58.324Z,74.79
2019-02-19T07:07:30.348Z,75.04
2019-02-19T07:10:02.345Z,74.81
2019-02-19T07:12:34.327Z,74.48
2019-02-19T07:15:06.376Z,73.49
2019-02-19T07:17:38.349Z,72.35
2019-02-19T07:20:10.397Z,70.95
2019-02-19T07:22:42.377Z,70.88
2019-02-19T07:25:14.396Z,70.48
2019-02-19T07:27:46.374Z,69.61
2019-02-19T07:30:18.366Z,68.71
2019-02-19T07:32:50.344Z,68.17
2019-02-19T07:35:22.379Z,67.97
2019-02-19T07:37:54.384Z,68.36
2019-02-19T07:40:26.375Z,68.87
2019-02-19T07:42:58.383Z,68.77
2019-02-19T07:45:30.363Z,67.59
2019-02-19T07:48:02.384Z,66.64
2019-02-19T07:50:34.410Z,66.89
2019-02-19T07:53:06.896Z,66.39
2019-02-19T07:55:38.917Z,65.06
2019-02-19T07:58:10.922Z,63.63
2019-02-19T08:00:42.927Z,62.28
2019-02-19T08:03:14.945Z,61.80
2019-02-19T08:05:46.910Z,61.40
2019-02-19T08:08:18.923Z,61.73
2019-02-19T08:10:50.947Z,61.63
2019-02-19T08:13:22.994Z,61.84
2019-02-19T08:15:55.060Z,61.57
2019-02-19T08:18:27.082Z,61.32
2019-02-19T08:20:59.127Z,61.33
2019-02-19T08:23:31.124Z,61.21
2019-02-19T08:26:03.148Z,62.08
2019-02-19T08:28:35.169Z,62.03
2019-02-19T08:31:07.197Z,62.75
2019-02-19T08:33:39.216Z,63.11
2019-02-19T08:36:11.249Z,62.83
2019-02-19T08:38:43.242Z,63.05
2019-02-19T08:41:15.342Z,63.71
2019-02-19T08:43:47.343Z,63.53
2019-02-19T08:46:19.349Z,63.34
2019-02-19T08:49:32.120Z,63.41
2019-02-19T08:52:04.136Z,62.79
2019-02-19T08:54:36.153Z,62.90
2019-02-19T08:57:08.286Z,63.17
2019-02-19T08:59:40.278Z,64.02
2019-02-19T09:02:12.283Z,65.02
2019-02-19T09:04:44.245Z,65.50
2019-02-19T09:07:16.255Z,65.25
2019-02-19T09:09:48.203Z,64.60
2019-02-19T09:12:20.221Z,64.06
2019-02-19T09:14:52.201Z,64.23
2019-02-19T09:17:24.187Z,64.69
2019-02-19T09:19:56.184Z,63.48
2019-02-19T09:22:28.205Z,62.35
2019-02-19T09:25:00.325Z,61.67
2019-02-19T09:27:32.312Z,60.96
2019-02-19T09:30:05.466Z,60.92
2019-02-19T09:32:37.456Z,61.09
2019-02-19T09:35:09.473Z,61.37
2019-02-19T09:37:41.435Z,61.27
2019-02-19T09:40:13.419Z,61.71
2019-02-19T09:42:45.380Z,62.04
2019-02-19T09:45:17.380Z,61.89
2019-02-19T09:47:49.385Z,61.22
2019-02-19T09:50:21.371Z,60.55
2019-02-19T09:52:59.795Z,60.23
2019-02-19T09:55:27.256Z,59.98
2019-02-19T09:57:59.240Z,59.76
2019-02-19T10:00:31.240Z,59.28
2019-02-19T10:03:03.273Z,58.88
2019-02-19T10:05:35.282Z,58.67
2019-02-19T10:08:07.365Z,57.79
2019-02-19T10:10:39.351Z,57.87
2019-02-19T10:13:11.363Z,58.00
2019-02-19T10:15:43.375Z,57.98
2019-02-19T10:18:15.345Z,57.50
2019-02-19T10:20:47.377Z,57.22
2019-02-19T10:23:19.342Z,56.83
2019-02-19T10:25:51.389Z,56.63
2019-02-19T10:28:23.389Z,56.25
2019-02-19T10:30:55.365Z,55.69
2019-02-19T10:33:27.368Z,55.88
2019-02-19T10:35:59.369Z,56.08
2019-02-19T10:38:31.353Z,55.80
2019-02-19T10:41:03.389Z,56.07
2019-02-19T10:43:35.383Z,56.26
2019-02-19T10:46:07.384Z,55.95
2019-02-19T10:48:39.353Z,56.01
2019-02-19T10:51:11.343Z,55.95
2019-02-19T10:53:43.300Z,56.05
2019-02-19T10:56:15.310Z,55.96
2019-02-19T10:58:47.297Z,55.75
2019-02-19T11:01:19.311Z,55.26
2019-02-19T11:03:51.303Z,54.69
2019-02-19T11:06:23.321Z,53.96
2019-02-19T11:08:55.314Z,53.80
2019-02-19T11:11:27.305Z,53.64
2019-02-19T11:13:59.304Z,53.72
2019-02-19T11:16:31.314Z,53.75
2019-02-19T11:19:03.295Z,54.03
2019-02-19T11:21:35.351Z,53.29
2019-02-19T11:24:07.363Z,52.50
2019-02-19T11:26:39.413Z,50.98
2019-02-19T11:29:11.438Z,50.98
2019-02-19T11:31:43.444Z,50.23
2019-02-19T11:34:15.488Z,49.67
2019-02-19T11:36:47.490Z,49.49
2019-02-19T11:39:19.517Z,48.86
2019-02-19T11:41:51.509Z,48.12
2019-02-19T11:44:23.516Z,48.00
2019-02-19T11:46:55.531Z,47.90
2019-02-19T11:49:27.554Z,47.66
2019-02-19T11:51:59.526Z,47.38
2019-02-19T11:54:31.514Z,47.58
2019-02-19T11:57:03.462Z,47.75
2019-02-19T11:59:35.442Z,48.28
2019-02-19T12:02:11.867Z,48.20
2019-02-19T12:04:43.884Z,47.17
2019-02-19T12:07:15.876Z,46.63
2019-02-19T12:09:47.978Z,46.71
2019-02-19T12:12:19.952Z,46.40
2019-02-19T12:14:52.005Z,46.76
2019-02-19T12:17:24.041Z,46.64
2019-02-19T12:19:56.109Z,47.30
2019-02-19T12:22:28.091Z,47.21
2019-02-19T12:25:00.107Z,47.45
2019-02-19T12:27:32.250Z,47.43
2019-02-19T12:30:05.179Z,47.77
2019-02-19T12:32:37.181Z,47.64
2019-02-19T12:35:09.216Z,47.94
2019-02-19T12:37:41.207Z,47.72
2019-02-19T12:40:13.192Z,48.05
2019-02-19T12:42:45.164Z,48.06
2019-02-19T12:45:17.156Z,47.90
2019-02-19T12:47:49.166Z,47.69
2019-02-19T12:50:21.196Z,47.61
2019-02-19T12:52:53.448Z,47.93
2019-02-19T12:55:25.469Z,48.36
2019-02-19T12:57:57.457Z,48.75
2019-02-19T13:00:29.455Z,48.97
2019-02-19T13:03:01.440Z,48.88
2019-02-19T13:05:33.449Z,49.26
2019-02-19T13:08:05.398Z,49.54
2019-02-19T13:10:37.422Z,50.54
2019-02-19T13:13:09.396Z,50.80
2019-02-19T13:15:41.447Z,51.17
2019-02-19T13:18:13.438Z,51.20
2019-02-19T13:20:45.471Z,51.59
2019-02-19T13:23:17.497Z,51.73
2019-02-19T13:25:49.506Z,52.21
2019-02-19T13:28:21.516Z,52.62
2019-02-19T13:30:53.528Z,52.63
2019-02-19T13:33:25.545Z,53.18
2019-02-19T13:35:57.558Z,53.27
2019-02-19T13:38:29.578Z,53.29
2019-02-19T13:41:01.601Z,52.73
2019-02-19T13:43:33.641Z,53.27
2019-02-19T13:46:05.672Z,53.55
2019-02-19T13:48:37.643Z,54.04
2019-02-19T13:51:09.655Z,54.38
2019-02-19T13:53:50.113Z,54.64
2019-02-19T13:56:22.137Z,54.91
2019-02-19T13:58:54.170Z,55.12
2019-02-19T14:01:26.152Z,55.31
2019-02-19T14:03:58.158Z,55.35
2019-02-19T14:06:30.307Z,55.17
2019-02-19T14:09:03.341Z,55.41
2019-02-19T14:11:35.341Z,55.77
2019-02-19T14:14:17.132Z,56.34
2019-02-19T14:16:55.421Z,56.24
2019-02-19T14:19:45.437Z,56.59
2019-02-19T14:22:46.161Z,56.59
2019-02-19T14:25:36.139Z,56.74
2019-02-19T14:28:36.989Z,57.08
2019-02-19T14:31:28.563Z,57.38
2019-02-19T14:34:27.186Z,57.75
2019-02-19T14:37:27.792Z,58.13
2019-02-19T14:40:31.467Z,59.16
2019-02-19T14:43:41.220Z,59.16
2019-02-19T14:46:32.830Z,58.27
2019-02-19T14:49:34.092Z,59.04
2019-02-19T14:52:04.594Z,59.57
2019-02-19T14:54:56.853Z,59.75
2019-02-19T14:57:50.691Z,59.64
2019-02-19T15:00:42.301Z,59.63
2019-02-19T15:03:42.742Z,59.89
2019-02-19T15:06:43.183Z,59.90
2019-02-19T15:09:37.622Z,60.06
2019-02-19T15:12:38.276Z,59.92
2019-02-19T15:15:36.796Z,60.08
2019-02-19T15:18:16.627Z,60.20
2019-02-19T15:21:26.432Z,60.26
2019-02-19T15:24:16.561Z,60.38
2019-02-19T15:27:11.222Z,60.51
2019-02-19T15:30:16.407Z,60.63
2019-02-19T15:33:10.811Z,60.63
2019-02-19T15:36:14.742Z,60.86
2019-02-19T15:38:53.683Z,61.05
2019-02-19T15:41:54.361Z,61.19
2019-02-19T15:44:44.562Z,61.27
2019-02-19T15:47:36.240Z,61.28
2019-02-19T15:50:19.007Z,61.25
2019-02-19T15:53:10.651Z,61.32
2019-02-19T15:56:00.927Z,61.27
2019-02-19T15:58:50.015Z,61.49
2019-02-19T16:01:36.716Z,61.66
2019-02-19T16:04:34.298Z,61.86
2019-02-19T16:07:41.095Z,61.99
2019-02-19T16:10:50.884Z,62.08
2019-02-19T16:13:31.559Z,62.23
2019-02-19T16:16:30.427Z,62.48
2019-02-19T16:19:32.588Z,62.70
2019-02-19T16:22:11.153Z,63.04
2019-02-19T16:25:01.830Z,63.23
2019-02-19T16:27:52.338Z,63.02
2019-02-19T16:30:42.711Z,63.15
2019-02-19T16:33:29.570Z,63.17
2019-02-19T16:36:11.129Z,63.48
2019-02-19T16:38:56.105Z,63.70
2019-02-19T16:41:50.809Z,63.76
2019-02-19T16:44:51.553Z,63.98
2019-02-19T16:47:45.898Z,64.08
2019-02-19T16:50:43.612Z,64.17
2019-02-19T16:53:31.315Z,64.41
2019-02-19T16:56:26.968Z,64.61
2019-02-19T16:59:26.944Z,64.69
2019-02-19T17:02:20.946Z,64.95
2019-02-19T17:05:15.709Z,65.26
2019-02-19T17:08:10.197Z,65.36
2019-02-19T17:10:52.509Z,65.33
2019-02-19T17:13:42.993Z,65.52
2019-02-19T17:16:29.997Z,65.71
2019-02-19T17:19:11.845Z,65.87
2019-02-19T17:22:01.930Z,65.90
2019-02-19T17:24:45.035Z,65.88
2019-02-19T17:27:39.548Z,66.24
2019-02-19T17:30:46.387Z,66.54
2019-02-19T17:33:43.721Z,66.59
2019-02-19T17:36:41.611Z,66.68
2019-02-19T17:39:33.207Z,66.78
2019-02-19T17:42:27.053Z,66.77
2019-02-19T17:45:23.688Z,66.92
2019-02-19T17:48:07.015Z,67.07
2019-02-19T17:50:58.861Z,67.04
2019-02-19T17:53:43.102Z,67.09
2019-02-19T17:56:37.238Z,67.09
2019-02-19T17:59:31.574Z,67.10
2019-02-19T18:02:26.108Z,67.07
2019-02-19T18:05:16.337Z,67.09
2019-02-19T18:08:03.725Z,67.17
2019-02-19T18:10:58.258Z,67.16
2019-02-19T18:13:49.973Z,67.36
2019-02-19T18:16:40.438Z,67.55
2019-02-19T18:19:12.633Z,67.45
2019-02-19T18:21:44.794Z,67.59
2019-02-19T18:24:16.840Z,67.66
2019-02-19T18:26:48.908Z,67.74
2019-02-19T18:29:21.085Z,67.95
2019-02-19T18:31:53.272Z,67.52
2019-02-19T18:34:25.373Z,67.61
2019-02-19T18:36:57.604Z,67.63
2019-02-19T18:39:29.806Z,67.75
2019-02-19T18:42:01.986Z,67.84
2019-02-19T18:44:34.335Z,67.96
2019-02-19T18:47:08.401Z,67.90
2019-02-19T18:49:41.875Z,67.94
2019-02-19T18:52:13.989Z,67.96
2019-02-19T18:54:47.168Z,67.93
2019-02-19T18:57:19.342Z,67.88
2019-02-19T18:59:51.453Z,68.05
2019-02-19T19:02:23.799Z,67.98
2019-02-19T19:04:56.173Z,68.09
2019-02-19T19:07:28.252Z,68.12
2019-02-19T19:10:00.788Z,68.12
2019-02-19T19:12:33.054Z,68.07
2019-02-19T19:15:06.109Z,67.91
2019-02-19T19:17:38.233Z,67.94
2019-02-19T19:20:10.482Z,68.09
2019-02-19T19:22:42.889Z,68.20
2019-02-19T19:25:15.109Z,68.24
2019-02-19T19:27:47.213Z,68.39
2019-02-19T19:30:19.673Z,68.56
2019-02-19T19:32:51.866Z,68.62
2019-02-19T19:35:24.111Z,68.87
2019-02-19T19:37:56.331Z,69.05
2019-02-19T19:40:29.898Z,69.17
2019-02-19T19:43:01.971Z,69.33
2019-02-19T19:45:34.260Z,69.55
2019-02-19T19:48:06.448Z,69.69
2019-02-19T19:50:38.968Z,69.71
2019-02-19T19:53:11.238Z,69.90
2019-02-19T19:55:43.436Z,70.28
2019-02-19T19:58:15.711Z,70.63
2019-02-19T20:00:47.935Z,70.83
2019-02-19T20:03:21.376Z,71.11
2019-02-19T20:05:53.540Z,71.34
2019-02-19T20:08:25.728Z,71.44
2019-02-19T20:10:57.995Z,71.38
2019-02-19T20:13:30.187Z,71.32
2019-02-19T20:16:02.702Z,71.17
2019-02-19T20:18:39.120Z,71.49
2019-02-19T20:21:09.314Z,71.70
2019-02-19T20:23:41.626Z,71.99
2019-02-19T20:26:13.954Z,72.24
2019-02-19T20:28:46.119Z,72.41
2019-02-19T20:31:18.340Z,72.54
2019-02-19T20:33:50.677Z,72.58
2019-02-19T20:36:24.200Z,72.77
2019-02-19T20:38:56.573Z,72.85
2019-02-19T20:41:28.838Z,73.05
2019-02-19T20:44:01.173Z,73.48
2019-02-19T20:46:34.570Z,73.37
2019-02-19T20:49:06.940Z,73.55
2019-02-19T20:51:39.172Z,73.89
2019-02-19T20:54:11.301Z,74.09
2019-02-19T20:56:43.462Z,74.31
2019-02-19T20:59:15.640Z,74.27
2019-02-19T21:01:47.896Z,74.53
2019-02-19T21:04:20.105Z,74.47
2019-02-19T21:06:52.192Z,74.52
2019-02-19T21:09:24.466Z,74.68
2019-02-19T21:11:56.575Z,74.46
2019-02-19T21:14:28.820Z,74.36
2019-02-19T21:17:01.094Z,74.67
2019-02-19T21:19:33.281Z,74.86
2019-02-19T21:22:06.430Z,74.86
2019-02-19T21:24:38.552Z,74.89
2019-02-19T21:27:10.704Z,75.10
2019-02-19T21:29:42.820Z,75.21
2019-02-19T21:32:14.911Z,75.10
2019-02-19T21:34:46.943Z,75.27
2019-02-19T21:37:19.173Z,75.34
2019-02-19T21:39:51.462Z,75.37
2019-02-19T21:42:23.461Z,75.56
2019-02-19T21:44:56.906Z,75.60
2019-02-19T21:47:28.917Z,75.59
2019-02-19T21:50:01.066Z,75.73
2019-02-19T21:52:33.149Z,75.78
2019-02-19T21:55:05.364Z,75.85
2019-02-19T21:57:37.454Z,75.79
2019-02-19T22:00:10.437Z,75.64
2019-02-19T22:02:44.243Z,75.32
2019-02-19T22:05:17.365Z,75.54
2019-02-19T22:07:49.542Z,75.81
2019-02-19T22:10:21.760Z,76.12
2019-02-19T22:12:53.893Z,76.39
2019-02-19T22:15:25.934Z,76.34
2019-02-19T22:17:57.968Z,76.71
2019-02-19T22:20:39.536Z,76.87
2019-02-19T22:23:11.560Z,76.88
2019-02-19T22:25:43.600Z,77.20
2019-02-19T22:28:16.923Z,77.26
2019-02-19T22:30:50.038Z,77.37
2019-02-19T22:33:22.177Z,76.98
2019-02-19T22:35:54.325Z,77.36
2019-02-19T22:38:26.315Z,77.72
2019-02-19T22:40:58.344Z,78.49
2019-02-19T22:43:30.346Z,78.13
2019-02-19T22:46:02.296Z,78.01
2019-02-19T22:48:34.447Z,77.57
2019-02-19T22:51:06.430Z,77.27
2019-02-19T22:53:45.176Z,76.95
2019-02-19T22:56:24.368Z,77.45
2019-02-19T22:58:56.376Z,77.74
2019-02-19T23:01:57.194Z,78.01
2019-02-19T23:04:29.289Z,78.62
2019-02-19T23:07:01.306Z,78.91
2019-02-19T23:09:33.320Z,79.15
2019-02-19T23:12:05.390Z,79.05
2019-02-19T23:14:37.392Z,78.85
2019-02-19T23:17:09.531Z,78.13
2019-02-19T23:19:42.928Z,77.70
2019-02-19T23:22:21.410Z,76.34
2019-02-19T23:24:50.480Z,76.20
2019-02-19T23:27:22.620Z,76.19
2019-02-19T23:29:54.623Z,76.61
2019-02-19T23:32:26.620Z,77.59
2019-02-19T23:35:33.264Z,77.98
2019-02-19T23:38:05.262Z,77.61
2019-02-19T23:40:37.293Z,77.24
2019-02-19T23:43:09.267Z,77.25
2019-02-19T23:45:41.293Z,77.32
2019-02-19T23:48:13.278Z,77.32
2019-02-19T23:50:45.369Z,76.90
2019-02-19T23:53:17.371Z,76.61
2019-02-19T23:55:51.183Z,76.49
2019-02-19T23:58:23.259Z,76.09
